createdAt,value
2016-12-28T00:00:52.021Z,73.94
2016-12-28T00:02:00.719Z,73.94
2016-12-28T00:03:09.415Z,74.04
2016-12-28T00:04:18.108Z,73.28
2016-12-28T00:05:26.806Z,73.28
2016-12-28T00:06:35.818Z,72.99
2016-12-28T00:07:44.515Z,72.8
2016-12-28T00:08:53.212Z,72.8
2016-12-28T00:10:01.903Z,73.18
2016-12-28T00:11:10.602Z,72.99
2016-12-28T00:12:19.301Z,73.37
2016-12-28T00:13:27.998Z,73.09
2016-12-28T00:14:36.693Z,71.95
2016-12-28T00:15:45.389Z,72.24
2016-12-28T00:16:54.109Z,72.14
2016-12-28T00:18:02.809Z,71.77
2016-12-28T00:19:11.508Z,71.67
2016-12-28T00:20:20.201Z,71.95
2016-12-28T00:21:28.899Z,71.67
2016-12-28T00:22:37.597Z,71.95
2016-12-28T00:23:46.294Z,73.09
2016-12-28T00:24:54.995Z,73.75
2016-12-28T00:26:03.690Z,74.04
2016-12-28T00:27:12.387Z,74.13
2016-12-28T00:28:21.085Z,73.28
2016-12-28T00:29:29.788Z,73.75
2016-12-28T00:30:38.485Z,73.47
2016-12-28T00:31:47.179Z,73.09
2016-12-28T00:32:55.873Z,73.28
2016-12-28T00:34:04.583Z,72.9
2016-12-28T00:35:13.300Z,73.18
2016-12-28T00:36:21.995Z,72.24
2016-12-28T00:37:30.692Z,72.05
2016-12-28T00:38:39.387Z,72.24
2016-12-28T00:39:48.400Z,72.24
2016-12-28T00:40:57.097Z,72.05
2016-12-28T00:42:05.803Z,72.33
2016-12-28T00:43:14.500Z,72.05
2016-12-28T00:44:23.194Z,72.43
2016-12-28T00:45:31.897Z,72.8
2016-12-28T00:46:40.617Z,72.14
2016-12-28T00:47:49.313Z,72.9
2016-12-28T00:48:58.007Z,72.9
2016-12-28T00:50:06.706Z,73.75
2016-12-28T00:51:15.399Z,73.37
2016-12-28T00:52:24.095Z,73.28
2016-12-28T00:53:32.787Z,73.94
2016-12-28T00:54:41.483Z,75.17
2016-12-28T00:55:50.179Z,75.26
2016-12-28T00:56:58.876Z,75.26
2016-12-28T00:58:07.887Z,76.02
2016-12-28T00:59:16.579Z,76.68
2016-12-28T01:00:25.272Z,76.31
2016-12-28T01:01:33.966Z,76.5
2016-12-28T01:02:42.665Z,76.68
2016-12-28T01:03:51.357Z,75.83
2016-12-28T01:05:00.060Z,75.17
2016-12-28T01:06:08.756Z,75.55
2016-12-28T01:07:17.449Z,75.07
2016-12-28T01:08:26.144Z,75.36
2016-12-28T01:09:34.871Z,75.26
2016-12-28T01:10:43.596Z,75.45
2016-12-28T01:11:52.318Z,75.26
2016-12-28T01:13:01.019Z,76.02
2016-12-28T01:14:09.713Z,76.31
2016-12-28T01:15:18.415Z,75.83
2016-12-28T01:16:27.109Z,75.55
2016-12-28T01:17:35.807Z,75.07
2016-12-28T01:18:44.503Z,74.55
2016-12-28T01:19:53.202Z,74.6
2016-12-28T01:21:02.215Z,74.26
2016-12-28T01:22:10.916Z,74.36
2016-12-28T01:23:19.613Z,73.98
2016-12-28T01:24:28.306Z,73.13
2016-12-28T01:25:37.000Z,72.94
2016-12-28T01:26:45.692Z,72.85
2016-12-28T01:27:54.388Z,72.66
2016-12-28T01:29:03.109Z,73.13
2016-12-28T01:30:11.808Z,72.85
2016-12-28T01:31:20.538Z,73.47
2016-12-28T01:32:29.231Z,73.28
2016-12-28T01:33:37.923Z,71.95
2016-12-28T01:34:46.618Z,72.14
2016-12-28T01:35:55.311Z,71.67
2016-12-28T01:37:04.008Z,71.11
2016-12-28T01:38:12.701Z,71.58
2016-12-28T01:39:21.393Z,70.92
2016-12-28T01:40:30.117Z,70.44
2016-12-28T01:41:39.125Z,70.92
2016-12-28T01:42:47.824Z,70.92
2016-12-28T01:43:56.520Z,71.11
2016-12-28T01:45:05.240Z,71.2
2016-12-28T01:46:13.933Z,72.05
2016-12-28T01:47:22.629Z,71.67
2016-12-28T01:48:31.329Z,72.05
2016-12-28T01:49:40.027Z,72.05
2016-12-28T01:50:48.730Z,71.77
2016-12-28T01:51:57.427Z,71.95
2016-12-28T01:53:06.122Z,71.67
2016-12-28T01:54:14.818Z,72.05
2016-12-28T01:55:23.515Z,72.14
2016-12-28T01:56:32.211Z,71.58
2016-12-28T01:57:40.905Z,70.63
2016-12-28T01:58:49.601Z,70.92
2016-12-28T01:59:58.292Z,71.11
2016-12-28T02:01:06.988Z,70.44
2016-12-28T02:02:16.002Z,70.16
2016-12-28T02:03:24.751Z,70.16
2016-12-28T02:04:33.443Z,70.06
2016-12-28T02:05:42.135Z,70.35
2016-12-28T02:06:50.825Z,70.82
2016-12-28T02:07:59.517Z,70.59
2016-12-28T02:09:08.215Z,70.78
2016-12-28T02:10:17.231Z,71.16
2016-12-28T02:11:25.923Z,71.73
2016-12-28T02:12:34.624Z,72.11
2016-12-28T02:13:43.325Z,72.11
2016-12-28T02:14:52.022Z,72.02
2016-12-28T02:16:00.716Z,72.02
2016-12-28T02:17:09.412Z,72.3
2016-12-28T02:18:18.104Z,72.96
2016-12-28T02:19:26.802Z,73.52
2016-12-28T02:20:35.499Z,74
2016-12-28T02:21:44.198Z,74.85
2016-12-28T02:22:52.891Z,75.51
2016-12-28T02:24:01.583Z,74.95
2016-12-28T02:25:10.277Z,74.57
2016-12-28T02:26:18.976Z,73.71
2016-12-28T02:27:27.699Z,73.05
2016-12-28T02:28:36.393Z,73.14
2016-12-28T02:29:45.092Z,72.96
2016-12-28T02:30:53.787Z,73.24
2016-12-28T02:32:02.484Z,72.96
2016-12-28T02:33:11.178Z,73.14
2016-12-28T02:34:19.871Z,73.14
2016-12-28T02:35:28.568Z,73.24
2016-12-28T02:36:37.286Z,73.62
2016-12-28T02:37:45.983Z,74.09
2016-12-28T02:38:54.678Z,74
2016-12-28T02:40:03.380Z,74.76
2016-12-28T02:41:12.075Z,75.7
2016-12-28T02:42:20.813Z,75.6
2016-12-28T02:43:29.509Z,76.36
2016-12-28T02:44:38.205Z,75.98
2016-12-28T02:45:46.898Z,76.51
2016-12-28T02:46:55.595Z,76.42
2016-12-28T02:48:04.293Z,76.32
2016-12-28T02:49:12.991Z,76.32
2016-12-28T02:50:21.681Z,76.61
2016-12-28T02:51:30.377Z,76.79
2016-12-28T02:52:39.068Z,76.98
2016-12-28T02:53:47.762Z,77.36
2016-12-28T02:54:56.480Z,77.55
2016-12-28T02:56:05.174Z,77.93
2016-12-28T02:57:13.864Z,78.12
2016-12-28T02:58:22.565Z,78.59
2016-12-28T02:59:31.257Z,78.68
2016-12-28T03:00:39.956Z,79.35
2016-12-28T03:01:48.678Z,79.35
2016-12-28T03:02:57.688Z,79.16
2016-12-28T03:04:06.381Z,79.16
2016-12-28T03:05:15.082Z,79.91
2016-12-28T03:06:23.779Z,80.19
2016-12-28T03:07:32.476Z,80.19
2016-12-28T03:08:41.169Z,79.91
2016-12-28T03:09:49.861Z,80
2016-12-28T03:10:58.559Z,79.35
2016-12-28T03:12:07.255Z,79.35
2016-12-28T03:13:15.949Z,78.4
2016-12-28T03:14:24.642Z,78.78
2016-12-28T03:15:33.335Z,78.78
2016-12-28T03:16:42.029Z,78.12
2016-12-28T03:17:50.737Z,77.83
2016-12-28T03:18:59.428Z,77.17
2016-12-28T03:20:08.122Z,77.17
2016-12-28T03:21:16.815Z,76.98
2016-12-28T03:22:25.560Z,77.93
2016-12-28T03:23:34.251Z,78.12
2016-12-28T03:24:42.976Z,78.4
2016-12-28T03:25:51.667Z,78.12
2016-12-28T03:27:00.378Z,77.55
2016-12-28T03:28:09.069Z,77.74
2016-12-28T03:29:17.775Z,77.55
2016-12-28T03:30:26.466Z,78.02
2016-12-28T03:31:35.160Z,77.93
2016-12-28T03:32:43.855Z,77.74
2016-12-28T03:33:52.547Z,78.21
2016-12-28T03:35:01.243Z,77.93
2016-12-28T03:36:09.946Z,77.93
2016-12-28T03:37:18.636Z,77.26
2016-12-28T03:38:27.326Z,77.26
2016-12-28T03:39:36.021Z,77.55
2016-12-28T03:40:44.721Z,77.17
2016-12-28T03:41:53.446Z,76.98
2016-12-28T03:43:02.162Z,76.51
2016-12-28T03:44:10.858Z,76.23
2016-12-28T03:45:19.554Z,76.14
2016-12-28T03:46:28.244Z,76.04
2016-12-28T03:47:36.939Z,75.76
2016-12-28T03:48:45.633Z,75.85
2016-12-28T03:49:54.329Z,75.76
2016-12-28T03:51:03.022Z,75.66
2016-12-28T03:52:11.718Z,75.57
2016-12-28T03:53:20.413Z,75.66
2016-12-28T03:54:29.104Z,75
2016-12-28T03:55:37.802Z,75
2016-12-28T03:56:46.494Z,74.43
2016-12-28T03:57:55.188Z,73.49
2016-12-28T03:59:03.886Z,73.43
2016-12-28T04:00:12.581Z,73.33
2016-12-28T04:01:21.276Z,74
2016-12-28T04:02:29.965Z,74.76
2016-12-28T04:03:38.664Z,74.76
2016-12-28T04:04:47.359Z,74.09
2016-12-28T04:05:56.053Z,73.24
2016-12-28T04:07:04.758Z,72.02
2016-12-28T04:08:13.781Z,71.64
2016-12-28T04:09:22.473Z,70.78
2016-12-28T04:10:31.169Z,70.69
2016-12-28T04:11:39.866Z,70.88
2016-12-28T04:12:48.557Z,71.92
2016-12-28T04:13:57.247Z,71.07
2016-12-28T04:15:06.095Z,71.26
2016-12-28T04:16:14.804Z,71.26
2016-12-28T04:17:23.501Z,71.45
2016-12-28T04:18:32.193Z,70.59
2016-12-28T04:19:40.886Z,70.31
2016-12-28T04:20:49.578Z,70.4
2016-12-28T04:21:58.273Z,70.4
2016-12-28T04:23:06.968Z,71.45
2016-12-28T04:24:15.660Z,71.73
2016-12-28T04:25:24.354Z,71.54
2016-12-28T04:26:33.046Z,71.54
2016-12-28T04:27:41.742Z,72.2
2016-12-28T04:28:50.441Z,72.3
2016-12-28T04:29:59.132Z,71.45
2016-12-28T04:31:07.848Z,71.35
2016-12-28T04:32:16.542Z,71.64
2016-12-28T04:33:25.234Z,72.02
2016-12-28T04:34:33.926Z,71.45
2016-12-28T04:35:42.625Z,71.01
2016-12-28T04:36:51.321Z,70.63
2016-12-28T04:38:00.012Z,70.63
2016-12-28T04:39:08.712Z,70.25
2016-12-28T04:40:17.411Z,70.63
2016-12-28T04:41:26.128Z,71.3
2016-12-28T04:42:34.820Z,71.3
2016-12-28T04:43:43.572Z,70.92
2016-12-28T04:44:52.265Z,70.54
2016-12-28T04:46:00.957Z,70.63
2016-12-28T04:47:09.652Z,70.63
2016-12-28T04:48:18.348Z,69.87
2016-12-28T04:49:27.039Z,69.97
2016-12-28T04:50:35.735Z,69.49
2016-12-28T04:51:44.428Z,70.25
2016-12-28T04:52:53.125Z,70.63
2016-12-28T04:54:01.817Z,70.06
2016-12-28T04:55:10.515Z,69.59
2016-12-28T04:56:19.214Z,68.93
2016-12-28T04:57:27.906Z,69.59
2016-12-28T04:58:36.606Z,68.93
2016-12-28T04:59:45.301Z,69.12
2016-12-28T05:00:54.037Z,69.4
2016-12-28T05:02:02.732Z,69.31
2016-12-28T05:03:11.434Z,69.21
2016-12-28T05:04:20.129Z,69.31
2016-12-28T05:05:28.821Z,69.12
2016-12-28T05:06:37.545Z,69.21
2016-12-28T05:07:46.275Z,69.97
2016-12-28T05:08:54.974Z,69.21
2016-12-28T05:10:03.671Z,69.49
2016-12-28T05:11:12.362Z,69.68
2016-12-28T05:12:21.058Z,70.35
2016-12-28T05:13:29.752Z,72.33
2016-12-28T05:14:38.448Z,72.9
2016-12-28T05:15:47.145Z,72.8
2016-12-28T05:16:55.841Z,73.28
2016-12-28T05:18:04.534Z,74.13
2016-12-28T05:19:13.226Z,74.98
2016-12-28T05:20:21.917Z,75.07
2016-12-28T05:21:30.619Z,75.07
2016-12-28T05:22:39.343Z,75.26
2016-12-28T05:23:48.068Z,75.17
2016-12-28T05:24:56.775Z,74.79
2016-12-28T05:26:05.473Z,74.88
2016-12-28T05:27:14.167Z,75.36
2016-12-28T05:28:22.869Z,75.45
2016-12-28T05:29:31.564Z,75.26
2016-12-28T05:30:40.269Z,75.26
2016-12-28T05:31:48.970Z,75.36
2016-12-28T05:32:57.663Z,75.26
2016-12-28T05:34:06.354Z,75.26
2016-12-28T05:35:15.077Z,73.94
2016-12-28T05:36:23.776Z,73.85
2016-12-28T05:37:32.466Z,73.66
2016-12-28T05:38:41.160Z,73.28
2016-12-28T05:39:49.854Z,73.28
2016-12-28T05:40:58.547Z,73.56
2016-12-28T05:42:07.559Z,73.75
2016-12-28T05:43:16.256Z,74.79
2016-12-28T05:44:24.948Z,74.32
2016-12-28T05:45:33.642Z,73.09
2016-12-28T05:46:42.337Z,72.71
2016-12-28T05:47:51.028Z,72.33
2016-12-28T05:48:59.720Z,72.05
2016-12-28T05:50:08.415Z,72.14
2016-12-28T05:51:17.118Z,71.95
2016-12-28T05:52:25.815Z,72.9
2016-12-28T05:53:34.508Z,73.66
2016-12-28T05:54:43.204Z,73.75
2016-12-28T05:55:51.899Z,74.22
2016-12-28T05:57:00.595Z,73.85
2016-12-28T05:58:09.296Z,73.66
2016-12-28T05:59:17.991Z,74.69
2016-12-28T06:00:26.684Z,74.13
2016-12-28T06:01:35.381Z,73.75
2016-12-28T06:02:44.085Z,73.85
2016-12-28T06:03:53.127Z,74.38
2016-12-28T06:05:01.827Z,74.38
2016-12-28T06:06:10.523Z,74.38
2016-12-28T06:07:19.212Z,74.95
2016-12-28T06:08:27.908Z,74.57
2016-12-28T06:09:36.631Z,75.23
2016-12-28T06:10:45.324Z,76.07
2016-12-28T06:11:54.019Z,76.17
2016-12-28T06:13:02.742Z,76.64
2016-12-28T06:14:11.439Z,75.23
2016-12-28T06:15:20.131Z,74.76
2016-12-28T06:16:28.826Z,74.76
2016-12-28T06:17:37.520Z,75.23
2016-12-28T06:18:46.216Z,75.6
2016-12-28T06:19:54.911Z,76.07
2016-12-28T06:21:03.605Z,75.7
2016-12-28T06:22:12.306Z,75.32
2016-12-28T06:23:21.034Z,75.79
2016-12-28T06:24:29.756Z,75.98
2016-12-28T06:25:38.452Z,76.26
2016-12-28T06:26:47.144Z,76.36
2016-12-28T06:27:55.840Z,76.26
2016-12-28T06:29:04.534Z,76.07
2016-12-28T06:30:13.227Z,76.17
2016-12-28T06:31:21.950Z,76.07
2016-12-28T06:32:30.637Z,76.55
2016-12-28T06:33:39.328Z,76.64
2016-12-28T06:34:48.023Z,75.7
2016-12-28T06:35:56.718Z,75.89
2016-12-28T06:37:05.410Z,76.07
2016-12-28T06:38:14.103Z,75.79
2016-12-28T06:39:22.794Z,76.36
2016-12-28T06:40:31.493Z,76.45
2016-12-28T06:41:40.193Z,76.26
2016-12-28T06:42:48.895Z,76.36
2016-12-28T06:43:57.581Z,76.07
2016-12-28T06:45:06.282Z,77.02
2016-12-28T06:46:14.984Z,77.12
2016-12-28T06:47:23.679Z,77.59
2016-12-28T06:48:32.370Z,77.21
2016-12-28T06:49:41.064Z,77.87
2016-12-28T06:50:49.761Z,77.4
2016-12-28T06:51:58.460Z,77.12
2016-12-28T06:53:07.180Z,76.17
2016-12-28T06:54:16.197Z,76.17
2016-12-28T06:55:24.888Z,76.55
2016-12-28T06:56:33.585Z,76.74
2016-12-28T06:57:42.276Z,76.26
2016-12-28T06:58:51.006Z,77.31
2016-12-28T06:59:59.697Z,77.4
2016-12-28T07:01:08.395Z,78.25
2016-12-28T07:02:17.089Z,77.87
2016-12-28T07:03:25.783Z,77.4
2016-12-28T07:04:34.480Z,77.4
2016-12-28T07:05:43.175Z,77.02
2016-12-28T07:06:51.866Z,76.45
2016-12-28T07:08:00.559Z,76.36
2016-12-28T07:09:09.283Z,76.45
2016-12-28T07:10:17.977Z,76.36
2016-12-28T07:11:26.670Z,76.74
2016-12-28T07:12:35.370Z,76.36
2016-12-28T07:13:44.064Z,77.02
2016-12-28T07:14:52.755Z,77.59
2016-12-28T07:16:01.449Z,77.4
2016-12-28T07:17:10.142Z,77.4
2016-12-28T07:18:18.836Z,77.31
2016-12-28T07:19:27.531Z,77.21
2016-12-28T07:20:36.227Z,76.93
2016-12-28T07:21:44.919Z,76.36
2016-12-28T07:22:53.611Z,76.07
2016-12-28T07:24:02.309Z,76.17
2016-12-28T07:25:11.012Z,75.83
2016-12-28T07:26:19.704Z,75.6
2016-12-28T07:27:28.400Z,76.31
2016-12-28T07:28:37.090Z,76.21
2016-12-28T07:29:45.783Z,76.78
2016-12-28T07:30:54.482Z,77.21
2016-12-28T07:32:03.180Z,77.15
2016-12-28T07:33:11.879Z,76.36
2016-12-28T07:34:20.572Z,76.83
2016-12-28T07:35:29.263Z,77.02
2016-12-28T07:36:37.964Z,77.21
2016-12-28T07:37:46.655Z,77.21
2016-12-28T07:38:55.356Z,77.97
2016-12-28T07:40:04.055Z,77.12
2016-12-28T07:41:12.757Z,77.4
2016-12-28T07:42:21.479Z,77.59
2016-12-28T07:43:30.170Z,78.16
2016-12-28T07:44:38.872Z,78.16
2016-12-28T07:45:47.566Z,78.16
2016-12-28T07:46:56.268Z,77.87
2016-12-28T07:48:04.964Z,77.5
2016-12-28T07:49:13.654Z,77.4
2016-12-28T07:50:22.347Z,77.02
2016-12-28T07:51:31.042Z,77.69
2016-12-28T07:52:39.735Z,78.06
2016-12-28T07:53:48.428Z,78.06
2016-12-28T07:54:57.119Z,77.97
2016-12-28T07:56:05.816Z,78.44
2016-12-28T07:57:14.515Z,77.69
2016-12-28T07:58:23.207Z,78.06
2016-12-28T07:59:31.904Z,78.34
2016-12-28T08:00:40.599Z,78.34
2016-12-28T08:01:49.293Z,78.63
2016-12-28T08:02:57.991Z,78.34
2016-12-28T08:04:06.687Z,78.44
2016-12-28T08:05:15.382Z,77.97
2016-12-28T08:06:24.084Z,78.25
2016-12-28T08:07:32.780Z,78.25
2016-12-28T08:08:41.474Z,78.53
2016-12-28T08:09:50.172Z,79.1
2016-12-28T08:10:58.863Z,78.72
2016-12-28T08:12:07.576Z,79.19
2016-12-28T08:13:16.298Z,79.19
2016-12-28T08:14:25.000Z,79
2016-12-28T08:15:33.699Z,79.19
2016-12-28T08:16:42.390Z,79.48
2016-12-28T08:17:51.085Z,79.38
2016-12-28T08:18:59.778Z,79.67
2016-12-28T08:20:08.476Z,80.33
2016-12-28T08:21:17.199Z,81.09
2016-12-28T08:22:25.894Z,80.43
2016-12-28T08:23:34.591Z,80.05
2016-12-28T08:24:43.286Z,80.14
2016-12-28T08:25:51.979Z,80.9
2016-12-28T08:27:00.670Z,81.27
2016-12-28T08:28:09.368Z,82.12
2016-12-28T08:29:18.062Z,82.03
2016-12-28T08:30:26.756Z,81.74
2016-12-28T08:31:35.452Z,81.93
2016-12-28T08:32:44.147Z,82.88
2016-12-28T08:33:52.847Z,82.88
2016-12-28T08:35:01.547Z,83.26
2016-12-28T08:36:10.241Z,83.17
2016-12-28T08:37:18.936Z,82.98
2016-12-28T08:38:27.634Z,82.41
2016-12-28T08:39:36.350Z,81.74
2016-12-28T08:40:45.043Z,81.74
2016-12-28T08:41:53.738Z,82.69
2016-12-28T08:43:02.433Z,81.84
2016-12-28T08:44:11.452Z,81.65
2016-12-28T08:45:20.184Z,81.27
2016-12-28T08:46:28.879Z,81.84
2016-12-28T08:47:37.575Z,82.12
2016-12-28T08:48:46.267Z,83.17
2016-12-28T08:49:54.990Z,83.17
2016-12-28T08:51:03.711Z,82.6
2016-12-28T08:52:12.403Z,81.93
2016-12-28T08:53:21.096Z,81.74
2016-12-28T08:54:29.789Z,81.56
2016-12-28T08:55:38.504Z,82.12
2016-12-28T08:56:47.197Z,81.93
2016-12-28T08:57:55.890Z,82.41
2016-12-28T08:59:04.585Z,82.12
2016-12-28T09:00:13.279Z,81.84
2016-12-28T09:01:22.028Z,82.41
2016-12-28T09:02:30.721Z,81.93
2016-12-28T09:03:39.416Z,81.84
2016-12-28T09:04:48.105Z,82.31
2016-12-28T09:05:57.123Z,82.03
2016-12-28T09:07:05.830Z,82.98
2016-12-28T09:08:14.526Z,83.07
2016-12-28T09:09:23.220Z,82.98
2016-12-28T09:10:31.916Z,83.07
2016-12-28T09:11:40.607Z,82.98
2016-12-28T09:12:49.305Z,81.93
2016-12-28T09:13:58.003Z,82.31
2016-12-28T09:15:06.701Z,81.56
2016-12-28T09:16:15.391Z,81.27
2016-12-28T09:17:24.084Z,80.99
2016-12-28T09:18:32.790Z,81.18
2016-12-28T09:19:41.515Z,80.9
2016-12-28T09:20:50.239Z,80.99
2016-12-28T09:21:58.936Z,81.65
2016-12-28T09:23:07.635Z,82.03
2016-12-28T09:24:16.330Z,81.74
2016-12-28T09:25:25.049Z,81.46
2016-12-28T09:26:33.742Z,81.74
2016-12-28T09:27:42.437Z,81.65
2016-12-28T09:28:51.127Z,81.65
2016-12-28T09:29:59.819Z,81.46
2016-12-28T09:31:08.514Z,81.56
2016-12-28T09:32:17.209Z,81.46
2016-12-28T09:33:25.936Z,81.09
2016-12-28T09:34:34.631Z,81.09
2016-12-28T09:35:43.349Z,80.9
2016-12-28T09:36:52.041Z,81.46
2016-12-28T09:38:00.734Z,81.46
2016-12-28T09:39:09.428Z,81.65
2016-12-28T09:40:18.146Z,81.84
2016-12-28T09:41:26.875Z,81.46
2016-12-28T09:42:35.572Z,81.09
2016-12-28T09:43:44.264Z,81.18
2016-12-28T09:44:52.960Z,80.99
2016-12-28T09:46:01.653Z,81.18
2016-12-28T09:47:10.350Z,81.18
2016-12-28T09:48:19.045Z,81.56
2016-12-28T09:49:27.736Z,81.74
2016-12-28T09:50:36.429Z,82.6
2016-12-28T09:51:45.132Z,82.03
2016-12-28T09:52:54.143Z,81.93
2016-12-28T09:54:02.836Z,81.84
2016-12-28T09:55:11.525Z,81.56
2016-12-28T09:56:20.221Z,81.37
2016-12-28T09:57:28.917Z,81.09
2016-12-28T09:58:37.612Z,80.71
2016-12-28T09:59:46.310Z,80.99
2016-12-28T10:00:55.005Z,81.18
2016-12-28T10:02:03.704Z,81.56
2016-12-28T10:03:12.402Z,81.18
2016-12-28T10:04:21.103Z,80.8
2016-12-28T10:05:29.798Z,81.09
2016-12-28T10:06:38.551Z,81.09
2016-12-28T10:07:47.242Z,80.9
2016-12-28T10:08:55.941Z,81.18
2016-12-28T10:10:04.640Z,81.18
2016-12-28T10:11:13.345Z,81.93
2016-12-28T10:12:22.041Z,81.65
2016-12-28T10:13:30.734Z,81.46
2016-12-28T10:14:39.433Z,81.56
2016-12-28T10:15:48.126Z,81.56
2016-12-28T10:16:56.823Z,81.74
2016-12-28T10:18:05.841Z,82.5
2016-12-28T10:19:14.540Z,82.6
2016-12-28T10:20:23.238Z,82.12
2016-12-28T10:21:31.932Z,82.5
2016-12-28T10:22:40.630Z,83.07
2016-12-28T10:23:49.334Z,82.98
2016-12-28T10:24:58.030Z,82.88
2016-12-28T10:26:06.730Z,82.69
2016-12-28T10:27:15.423Z,83.17
2016-12-28T10:28:24.114Z,82.88
2016-12-28T10:29:32.814Z,83.26
2016-12-28T10:30:41.511Z,82.98
2016-12-28T10:31:50.212Z,83.45
2016-12-28T10:32:58.935Z,83.54
2016-12-28T10:34:07.627Z,84.01
2016-12-28T10:35:16.320Z,84.86
2016-12-28T10:36:25.328Z,85.43
2016-12-28T10:37:34.030Z,85.72
2016-12-28T10:38:42.826Z,86.19
2016-12-28T10:39:51.540Z,86.29
2016-12-28T10:41:00.237Z,85.62
2016-12-28T10:42:08.932Z,85.24
2016-12-28T10:43:17.630Z,85.15
2016-12-28T10:44:26.374Z,85.43
2016-12-28T10:45:35.382Z,85.43
2016-12-28T10:46:44.077Z,84.68
2016-12-28T10:47:52.776Z,85.43
2016-12-28T10:49:01.467Z,86.38
2016-12-28T10:50:10.193Z,86
2016-12-28T10:51:18.889Z,86.85
2016-12-28T10:52:27.581Z,86.57
2016-12-28T10:53:36.275Z,86.57
2016-12-28T10:54:44.967Z,86.94
2016-12-28T10:55:53.661Z,87.04
2016-12-28T10:57:02.365Z,87.13
2016-12-28T10:58:11.093Z,87.51
2016-12-28T10:59:19.787Z,87.79
2016-12-28T11:00:28.488Z,87.51
2016-12-28T11:01:37.182Z,87.51
2016-12-28T11:02:45.882Z,87.32
2016-12-28T11:03:54.581Z,87.61
2016-12-28T11:05:03.281Z,87.51
2016-12-28T11:06:11.977Z,87.32
2016-12-28T11:07:20.676Z,87.51
2016-12-28T11:08:29.405Z,87.7
2016-12-28T11:09:38.420Z,87.79
2016-12-28T11:10:47.136Z,87.7
2016-12-28T11:11:55.862Z,87.42
2016-12-28T11:13:04.562Z,87.42
2016-12-28T11:14:13.586Z,87.61
2016-12-28T11:15:22.286Z,88.08
2016-12-28T11:16:30.983Z,87.79
2016-12-28T11:17:39.692Z,87.51
2016-12-28T11:18:48.387Z,87.7
2016-12-28T11:19:57.083Z,87.42
2016-12-28T11:21:05.790Z,87.32
2016-12-28T11:22:14.491Z,87.04
2016-12-28T11:23:23.189Z,87.32
2016-12-28T11:24:31.886Z,87.42
2016-12-28T11:25:40.587Z,87.32
2016-12-28T11:26:49.315Z,87.32
2016-12-28T11:27:58.007Z,86.57
2016-12-28T11:29:06.713Z,87.23
2016-12-28T11:30:15.408Z,86.38
2016-12-28T11:31:24.106Z,86
2016-12-28T11:32:32.800Z,86.38
2016-12-28T11:33:41.499Z,86.1
2016-12-28T11:34:50.198Z,86.38
2016-12-28T11:35:59.209Z,85.72
2016-12-28T11:37:07.904Z,85.72
2016-12-28T11:38:16.598Z,86.29
2016-12-28T11:39:25.306Z,86.29
2016-12-28T11:40:34.005Z,86.29
2016-12-28T11:41:42.711Z,86.1
2016-12-28T11:42:51.412Z,86.1
2016-12-28T11:44:00.104Z,86
2016-12-28T11:45:08.803Z,86.29
2016-12-28T11:46:17.500Z,86
2016-12-28T11:47:26.227Z,86.38
2016-12-28T11:48:34.923Z,85.91
2016-12-28T11:49:43.632Z,85.81
2016-12-28T11:50:52.646Z,85.34
2016-12-28T11:52:01.343Z,85.43
2016-12-28T11:53:10.036Z,85.34
2016-12-28T11:54:18.729Z,84.96
2016-12-28T11:55:27.428Z,85.15
2016-12-28T11:56:36.120Z,84.77
2016-12-28T11:57:44.818Z,84.3
2016-12-28T11:58:53.509Z,83.92
2016-12-28T12:00:02.202Z,84.11
2016-12-28T12:01:10.900Z,84.25
2016-12-28T12:02:19.615Z,83.97
2016-12-28T12:03:28.306Z,83.49
2016-12-28T12:04:37.019Z,83.4
2016-12-28T12:05:45.723Z,82.73
2016-12-28T12:06:54.414Z,83.11
2016-12-28T12:08:03.104Z,82.83
2016-12-28T12:09:11.805Z,82.35
2016-12-28T12:10:20.500Z,82.35
2016-12-28T12:11:29.201Z,81.79
2016-12-28T12:12:37.918Z,82.17
2016-12-28T12:13:46.618Z,81.6
2016-12-28T12:14:55.313Z,81.51
2016-12-28T12:16:04.010Z,81.32
2016-12-28T12:17:12.706Z,80.84
2016-12-28T12:18:21.402Z,80.37
2016-12-28T12:19:30.103Z,80.37
2016-12-28T12:20:38.798Z,79.8
2016-12-28T12:21:47.503Z,79.61
2016-12-28T12:22:56.200Z,79.47
2016-12-28T12:24:04.948Z,79.85
2016-12-28T12:25:13.644Z,79.56
2016-12-28T12:26:22.383Z,79.56
2016-12-28T12:27:31.077Z,79.18
2016-12-28T12:28:39.773Z,78.52
2016-12-28T12:29:48.484Z,78.61
2016-12-28T12:30:57.186Z,78.71
2016-12-28T12:32:05.912Z,78.61
2016-12-28T12:33:14.609Z,78.8
2016-12-28T12:34:23.309Z,78.14
2016-12-28T12:35:32.004Z,78.23
2016-12-28T12:36:40.702Z,78.14
2016-12-28T12:37:49.393Z,77.95
2016-12-28T12:38:58.089Z,78.14
2016-12-28T12:40:06.821Z,77.76
2016-12-28T12:41:15.519Z,77.48
2016-12-28T12:42:24.218Z,77.39
2016-12-28T12:43:32.915Z,77.67
2016-12-28T12:44:41.615Z,78.05
2016-12-28T12:45:50.309Z,78.05
2016-12-28T12:46:59.005Z,77.48
2016-12-28T12:48:07.728Z,77.95
2016-12-28T12:49:16.425Z,77.76
2016-12-28T12:50:25.127Z,77.39
2016-12-28T12:51:33.822Z,77.29
2016-12-28T12:52:42.534Z,77.39
2016-12-28T12:53:51.235Z,77.76
2016-12-28T12:54:59.937Z,77.58
2016-12-28T12:56:08.637Z,77.58
2016-12-28T12:57:17.335Z,77.29
2016-12-28T12:58:26.046Z,77.67
2016-12-28T12:59:34.746Z,78.05
2016-12-28T13:00:43.439Z,78.01
2016-12-28T13:01:52.138Z,78.58
2016-12-28T13:03:00.863Z,78.95
2016-12-28T13:04:09.566Z,79.24
2016-12-28T13:05:18.306Z,79.43
2016-12-28T13:06:27.005Z,79.9
2016-12-28T13:07:35.708Z,79.8
2016-12-28T13:08:44.408Z,80.18
2016-12-28T13:09:53.105Z,79.52
2016-12-28T13:11:01.803Z,79.61
2016-12-28T13:12:10.526Z,79.61
2016-12-28T13:13:19.220Z,80.37
2016-12-28T13:14:27.922Z,80.37
2016-12-28T13:15:36.622Z,80.08
2016-12-28T13:16:45.322Z,79.99
2016-12-28T13:17:54.020Z,80.18
2016-12-28T13:19:02.720Z,80.46
2016-12-28T13:20:11.412Z,80.37
2016-12-28T13:21:20.108Z,80.37
2016-12-28T13:22:28.802Z,80.08
2016-12-28T13:23:37.498Z,80.84
2016-12-28T13:24:46.195Z,80.9
2016-12-28T13:25:54.891Z,81.32
2016-12-28T13:27:03.593Z,81.22
2016-12-28T13:28:12.287Z,81.32
2016-12-28T13:29:20.982Z,81.88
2016-12-28T13:30:29.685Z,81.93
2016-12-28T13:31:38.384Z,81.93
2016-12-28T13:32:47.089Z,82.12
2016-12-28T13:33:55.785Z,82.79
2016-12-28T13:35:04.479Z,83.07
2016-12-28T13:36:13.176Z,82.98
2016-12-28T13:37:21.871Z,83.17
2016-12-28T13:38:30.568Z,83.73
2016-12-28T13:39:39.262Z,83.73
2016-12-28T13:40:47.963Z,84.01
2016-12-28T13:41:57.056Z,84.3
2016-12-28T13:43:05.760Z,84.77
2016-12-28T13:44:14.458Z,85.53
2016-12-28T13:45:23.183Z,85.15
2016-12-28T13:46:31.882Z,86.1
2016-12-28T13:47:40.576Z,86.66
2016-12-28T13:48:49.275Z,86.29
2016-12-28T13:49:57.968Z,86.19
2016-12-28T13:51:06.673Z,86.19
2016-12-28T13:52:15.368Z,85.81
2016-12-28T13:53:24.062Z,86.57
2016-12-28T13:54:32.758Z,87.04
2016-12-28T13:55:41.453Z,86.8
2016-12-28T13:56:50.148Z,86.9
2016-12-28T13:57:58.851Z,86.43
2016-12-28T13:59:07.549Z,85.86
2016-12-28T14:00:16.240Z,86.05
2016-12-28T14:01:24.931Z,86.43
2016-12-28T14:02:33.624Z,86.43
2016-12-28T14:03:42.315Z,86.33
2016-12-28T14:04:51.005Z,85.96
2016-12-28T14:05:59.701Z,86.62
2016-12-28T14:07:08.394Z,87.28
2016-12-28T14:08:17.092Z,87.28
2016-12-28T14:09:25.787Z,87.37
2016-12-28T14:10:34.481Z,87.66
2016-12-28T14:11:43.193Z,86.9
2016-12-28T14:12:51.894Z,86.99
2016-12-28T14:14:00.589Z,87.09
2016-12-28T14:15:09.315Z,87.47
2016-12-28T14:16:18.014Z,87.18
2016-12-28T14:17:26.706Z,87.37
2016-12-28T14:18:35.398Z,86.62
2016-12-28T14:19:44.088Z,86.99
2016-12-28T14:20:52.782Z,87.28
2016-12-28T14:22:01.476Z,86.71
2016-12-28T14:23:10.171Z,86.71
2016-12-28T14:24:18.865Z,86.8
2016-12-28T14:25:27.559Z,86.71
2016-12-28T14:26:36.252Z,86.8
2016-12-28T14:27:44.946Z,86.52
2016-12-28T14:28:53.642Z,86.99
2016-12-28T14:30:02.340Z,86.52
2016-12-28T14:31:11.033Z,86.66
2016-12-28T14:32:19.729Z,86.71
2016-12-28T14:33:28.426Z,86.99
2016-12-28T14:34:37.126Z,86.52
2016-12-28T14:35:45.820Z,86.9
2016-12-28T14:36:54.514Z,86.9
2016-12-28T14:38:03.207Z,86.99
2016-12-28T14:39:11.898Z,86.94
2016-12-28T14:40:20.602Z,87.56
2016-12-28T14:41:29.309Z,87.18
2016-12-28T14:42:38.001Z,86.9
2016-12-28T14:43:46.689Z,87.37
2016-12-28T14:44:55.388Z,87.28
2016-12-28T14:46:04.084Z,87.18
2016-12-28T14:47:12.776Z,87.28
2016-12-28T14:48:21.470Z,86.71
2016-12-28T14:49:30.178Z,86.9